createdAt,value
2018-11-11T00:02:05.592Z,192.80
2018-11-11T00:04:35.296Z,215.30
2018-11-11T00:07:05.991Z,157.87
2018-11-11T00:09:35.676Z,161.83
2018-11-11T00:12:05.546Z,168.03
2018-11-11T00:14:35.235Z,162.33
2018-11-11T00:17:05.141Z,163.03
2018-11-11T00:19:34.847Z,164.17
2018-11-11T00:22:05.374Z,164.63
2018-11-11T00:24:35.076Z,168.80
2018-11-11T00:27:05.382Z,160.60
2018-11-11T00:29:35.133Z,167.63
2018-11-11T00:32:05.400Z,186.67
2018-11-11T00:34:36.131Z,162.53
2018-11-11T00:37:05.905Z,159.53
2018-11-11T00:39:36.707Z,164.90
2018-11-11T00:42:06.777Z,173.83
2018-11-11T00:44:37.504Z,163.40
2018-11-11T00:47:08.212Z,332.43
2018-11-11T00:49:37.917Z,178.67
2018-11-11T00:52:07.999Z,158.00
2018-11-11T00:54:37.984Z,160.47
2018-11-11T00:57:09.439Z,172.73
2018-11-11T00:59:40.168Z,159.07
2018-11-11T01:02:09.924Z,158.17
2018-11-11T01:04:39.655Z,173.83
2018-11-11T01:07:09.333Z,160.70
2018-11-11T01:09:39.013Z,167.60
2018-11-11T01:12:08.757Z,207.90
2018-11-11T01:14:38.452Z,192.47
2018-11-11T01:17:09.760Z,198.87
2018-11-11T01:19:39.446Z,171.07
2018-11-11T01:22:10.187Z,198.90
2018-11-11T01:24:39.891Z,164.37
2018-11-11T01:27:09.596Z,175.10
2018-11-11T01:29:40.337Z,159.57
2018-11-11T01:32:10.038Z,172.10
2018-11-11T01:34:40.775Z,157.43
2018-11-11T01:37:10.467Z,162.95
2018-11-11T01:39:40.511Z,161.83
2018-11-11T01:42:10.161Z,150.53
2018-11-11T01:44:39.807Z,133.90
2018-11-11T01:47:10.486Z,138.53
2018-11-11T01:49:41.172Z,116.47
2018-11-11T01:52:10.793Z,131.87
2018-11-11T01:54:40.473Z,112.63
2018-11-11T01:57:10.107Z,131.60
2018-11-11T01:59:39.764Z,144.33
2018-11-11T02:02:09.428Z,145.53
2018-11-11T02:04:39.052Z,155.20
2018-11-11T02:07:08.700Z,138.93
2018-11-11T02:09:38.316Z,144.67
2018-11-11T02:12:08.013Z,121.30
2018-11-11T02:14:37.669Z,141.67
2018-11-11T02:17:07.324Z,147.60
2018-11-11T02:19:37.041Z,153.57
2018-11-11T02:22:06.740Z,117.53
2018-11-11T02:24:37.428Z,133.27
2018-11-11T02:27:07.503Z,127.20
2018-11-11T02:29:37.183Z,122.43
2018-11-11T02:32:06.871Z,125.43
2018-11-11T02:34:36.544Z,98.80
2018-11-11T02:37:06.593Z,109.77
2018-11-11T02:39:37.308Z,114.00
2018-11-11T02:42:06.936Z,115.40
2018-11-11T02:44:36.541Z,126.90
2018-11-11T02:47:06.443Z,138.00
2018-11-11T02:49:36.042Z,98.37
2018-11-11T02:52:05.762Z,179.70
2018-11-11T02:54:36.387Z,126.93
2018-11-11T02:57:06.094Z,121.57
2018-11-11T02:59:35.743Z,188.70
2018-11-11T03:02:06.231Z,155.37
2018-11-11T03:04:36.034Z,132.63
2018-11-11T03:07:05.719Z,122.93
2018-11-11T03:09:35.360Z,134.07
2018-11-11T03:12:05.474Z,175.53
2018-11-11T03:14:35.159Z,138.80
2018-11-11T03:17:05.229Z,107.97
2018-11-11T03:19:35.268Z,93.57
2018-11-11T03:22:06.170Z,103.87
2018-11-11T03:24:35.831Z,106.23
2018-11-11T03:27:06.514Z,114.17
2018-11-11T03:29:36.151Z,103.07
2018-11-11T03:32:06.281Z,107.60
2018-11-11T03:34:35.935Z,109.87
2018-11-11T03:37:07.561Z,119.97
2018-11-11T03:39:37.256Z,125.93
2018-11-11T03:42:08.473Z,110.47
2018-11-11T03:44:39.163Z,91.03
2018-11-11T03:47:08.755Z,92.97
2018-11-11T03:49:38.389Z,99.03
2018-11-11T03:52:08.755Z,93.17
2018-11-11T03:54:39.467Z,96.57
2018-11-11T03:57:09.055Z,83.10
2018-11-11T03:59:38.697Z,83.77
2018-11-11T04:02:08.310Z,95.03
2018-11-11T04:04:37.976Z,82.57
2018-11-11T04:07:08.079Z,84.00
2018-11-11T04:09:37.708Z,96.87
2018-11-11T04:12:08.464Z,80.90
2018-11-11T04:14:38.120Z,96.83
2018-11-11T04:17:07.799Z,90.77
2018-11-11T04:19:37.405Z,99.93
2018-11-11T04:22:14.795Z,90.63
2018-11-11T04:24:44.502Z,86.87
2018-11-11T04:27:14.126Z,102.00
2018-11-11T04:29:43.766Z,100.60
2018-11-11T04:32:13.380Z,100.53
2018-11-11T04:34:43.699Z,99.00
2018-11-11T04:37:13.306Z,93.30
2018-11-11T04:39:43.017Z,92.03
2018-11-11T04:42:12.633Z,102.17
2018-11-11T04:44:42.280Z,99.23
2018-11-11T04:47:11.948Z,110.13
2018-11-11T04:49:41.592Z,112.23
2018-11-11T04:52:11.196Z,113.17
2018-11-11T04:54:40.819Z,116.63
2018-11-11T04:57:10.432Z,118.27
2018-11-11T04:59:40.036Z,116.40
2018-11-11T05:02:09.843Z,111.43
2018-11-11T05:04:39.471Z,109.73
2018-11-11T05:07:09.826Z,130.47
2018-11-11T05:09:39.475Z,118.87
2018-11-11T05:12:09.088Z,122.47
2018-11-11T05:14:38.696Z,130.60
2018-11-11T05:17:08.348Z,125.83
2018-11-11T05:19:37.963Z,127.53
2018-11-11T05:22:07.879Z,133.07
2018-11-11T05:24:38.519Z,124.20
2018-11-11T05:27:08.299Z,122.00
2018-11-11T05:29:38.934Z,117.17
2018-11-11T05:32:08.548Z,130.97
2018-11-11T05:34:39.081Z,123.80
2018-11-11T05:37:08.694Z,117.00
2018-11-11T05:39:38.298Z,117.00
2018-11-11T05:42:08.938Z,117.17
2018-11-11T05:44:38.579Z,123.87
2018-11-11T05:47:09.221Z,118.80
2018-11-11T05:52:15.335Z,127.70
2018-11-11T05:54:44.950Z,121.87
2018-11-11T05:57:15.612Z,111.70
2018-11-11T05:59:46.151Z,120.50
2018-11-11T06:02:16.811Z,117.10
2018-11-11T06:04:46.438Z,115.90
2018-11-11T06:07:16.111Z,110.60
2018-11-11T06:09:45.712Z,106.43
2018-11-11T06:12:15.326Z,110.10
2018-11-11T06:14:44.929Z,101.47
2018-11-11T06:17:14.605Z,107.80
2018-11-11T06:19:44.218Z,124.50
2018-11-11T06:22:14.887Z,107.70
2018-11-11T06:24:45.577Z,124.87
2018-11-11T06:27:15.233Z,111.83
2018-11-11T06:29:44.857Z,119.57
2018-11-11T06:32:14.478Z,122.70
2018-11-11T06:34:44.096Z,112.33
2018-11-11T06:37:13.696Z,115.70
2018-11-11T06:39:43.376Z,120.93
2018-11-11T06:42:13.099Z,122.55
2018-11-11T06:44:43.749Z,117.60
2018-11-11T06:47:14.467Z,116.37
2018-11-11T06:49:44.144Z,136.20
2018-11-11T06:52:13.798Z,115.70
2018-11-11T06:57:17.621Z,133.67
2018-11-11T06:59:49.115Z,127.70
2018-11-11T07:02:22.116Z,132.20
2018-11-11T07:04:51.748Z,130.90
2018-11-11T07:07:21.487Z,124.90
2018-11-11T07:09:51.113Z,117.47
2018-11-11T07:12:20.731Z,124.53
2018-11-11T07:14:50.339Z,131.17
2018-11-11T07:17:20.987Z,124.47
2018-11-11T07:19:50.600Z,128.67
2018-11-11T07:22:20.437Z,135.50
2018-11-11T07:24:50.172Z,128.53
2018-11-11T07:27:19.819Z,140.77
2018-11-11T07:29:49.434Z,140.10
2018-11-11T07:32:19.047Z,286.77
2018-11-11T07:34:48.714Z,216.93
2018-11-11T07:37:18.437Z,137.87
2018-11-11T07:39:48.072Z,147.40
2018-11-11T07:42:17.729Z,136.67
2018-11-11T07:44:48.451Z,149.43
2018-11-11T07:47:18.199Z,196.40
2018-11-11T07:49:48.384Z,223.30
2018-11-11T07:52:18.004Z,152.20
2018-11-11T07:54:47.705Z,144.97
2018-11-11T07:57:18.408Z,142.57
2018-11-11T07:59:48.044Z,167.63
2018-11-11T08:02:17.751Z,238.17
2018-11-11T08:04:47.364Z,222.53
2018-11-11T08:07:17.006Z,315.33
2018-11-11T08:09:46.631Z,283.10
2018-11-11T08:12:16.313Z,348.97
2018-11-11T08:14:45.983Z,171.00
2018-11-11T08:17:15.661Z,156.43
2018-11-11T08:19:45.272Z,191.30
2018-11-11T08:22:15.939Z,200.17
2018-11-11T08:24:45.560Z,195.70
2018-11-11T08:27:15.282Z,162.93
2018-11-11T08:29:44.896Z,163.40
2018-11-11T08:32:14.515Z,161.43
2018-11-11T08:34:44.177Z,148.50
2018-11-11T08:37:13.806Z,150.83
2018-11-11T08:39:43.423Z,143.80
2018-11-11T08:42:13.756Z,164.17
2018-11-11T08:44:44.364Z,159.57
2018-11-11T08:47:14.046Z,156.83
2018-11-11T08:49:43.659Z,149.70
2018-11-11T08:52:13.308Z,139.30
2018-11-11T08:54:42.924Z,146.13
2018-11-11T08:57:12.552Z,153.93
2018-11-11T08:59:42.213Z,174.40
2018-11-11T09:02:12.910Z,230.57
2018-11-11T09:04:43.602Z,150.70
2018-11-11T09:07:13.303Z,140.60
2018-11-11T09:09:42.925Z,139.17
2018-11-11T09:12:12.554Z,184.63
2018-11-11T09:14:43.204Z,155.40
2018-11-11T09:17:13.620Z,176.90
2018-11-11T09:19:43.207Z,226.60
2018-11-11T09:22:12.835Z,161.77
2018-11-11T09:24:42.449Z,180.87
2018-11-11T09:27:12.100Z,131.43
2018-11-11T09:29:41.743Z,142.57
2018-11-11T09:32:11.353Z,137.33
2018-11-11T09:34:40.967Z,160.23
2018-11-11T09:37:10.715Z,140.60
2018-11-11T09:39:40.388Z,168.83
2018-11-11T09:42:10.009Z,144.80
2018-11-11T09:44:39.649Z,145.93
2018-11-11T09:47:09.266Z,146.93
2018-11-11T09:49:38.902Z,163.23
2018-11-11T09:52:08.523Z,212.37
2018-11-11T09:54:38.157Z,233.20
2018-11-11T09:57:08.041Z,199.43
2018-11-11T09:59:37.682Z,208.60
2018-11-11T10:02:07.438Z,270.00
2018-11-11T10:04:48.123Z,177.83
2018-11-11T10:07:38.177Z,196.87
2018-11-11T10:10:15.503Z,204.00
2018-11-11T10:12:53.726Z,231.07
2018-11-11T10:15:43.206Z,218.90
2018-11-11T10:18:21.707Z,268.87
2018-11-11T10:23:00.466Z,162.80
2018-11-11T10:25:35.194Z,191.27
2018-11-11T10:28:12.976Z,262.63
2018-11-11T10:30:49.019Z,174.30
2018-11-11T10:35:34.487Z,187.97
2018-11-11T10:38:09.556Z,156.90
2018-11-11T10:40:45.413Z,163.43
2018-11-11T10:43:26.128Z,147.60
2018-11-11T10:46:04.869Z,133.17
2018-11-11T10:48:37.693Z,152.80
2018-11-11T10:51:07.807Z,132.33
2018-11-11T10:53:37.456Z,163.63
2018-11-11T10:56:07.120Z,152.90
2018-11-11T10:58:36.767Z,136.63
2018-11-11T11:02:11.955Z,163.80
2018-11-11T11:04:46.842Z,158.97
2018-11-11T11:07:16.544Z,164.32
2018-11-11T11:09:46.144Z,146.80
2018-11-11T11:12:15.785Z,175.07
2018-11-11T11:14:45.408Z,161.70
2018-11-11T11:17:16.092Z,164.57
2018-11-11T11:19:45.710Z,190.33
2018-11-11T11:22:16.408Z,156.90
2018-11-11T11:24:47.032Z,149.33
2018-11-11T11:27:16.689Z,141.00
2018-11-11T11:29:46.359Z,146.73
2018-11-11T11:32:17.191Z,136.10
2018-11-11T11:34:46.756Z,147.43
2018-11-11T11:37:16.765Z,161.77
2018-11-11T11:39:47.413Z,166.40
2018-11-11T11:42:17.046Z,182.47
2018-11-11T11:44:46.665Z,170.83
2018-11-11T11:47:16.369Z,180.73
2018-11-11T11:49:46.021Z,179.43
2018-11-11T11:52:15.643Z,151.87
2018-11-11T11:54:45.300Z,169.37
2018-11-11T11:57:14.907Z,153.77
2018-11-11T11:59:45.465Z,155.27
2018-11-11T12:02:16.408Z,173.80
2018-11-11T12:04:45.971Z,158.77
2018-11-11T12:07:15.651Z,148.63
2018-11-11T12:09:45.250Z,154.40
2018-11-11T12:12:14.906Z,167.17
2018-11-11T12:14:44.523Z,182.00
2018-11-11T12:17:14.205Z,213.70
2018-11-11T12:19:43.804Z,198.53
2018-11-11T12:22:13.405Z,171.77
2018-11-11T12:24:43.048Z,168.33
2018-11-11T12:27:12.685Z,173.83
2018-11-11T12:29:42.320Z,167.50
2018-11-11T12:32:11.949Z,181.90
2018-11-11T12:34:41.598Z,169.13
2018-11-11T12:37:11.265Z,158.60
2018-11-11T12:39:41.048Z,151.67
2018-11-11T12:42:10.622Z,145.77
2018-11-11T12:44:40.272Z,228.60
2018-11-11T12:47:11.012Z,151.90
2018-11-11T12:49:40.611Z,153.57
2018-11-11T12:52:10.262Z,153.67
2018-11-11T12:54:39.899Z,171.90
2018-11-11T12:57:10.088Z,163.17
2018-11-11T12:59:39.696Z,153.53
2018-11-11T13:02:09.324Z,148.87
2018-11-11T13:04:38.972Z,178.67
2018-11-11T13:07:08.627Z,202.77
2018-11-11T13:09:38.251Z,131.53
2018-11-11T13:12:07.942Z,132.57
2018-11-11T13:14:37.543Z,131.60
2018-11-11T13:17:09.320Z,138.47
2018-11-11T13:19:39.321Z,237.60
2018-11-11T13:22:09.057Z,222.87
2018-11-11T13:24:38.691Z,214.27
2018-11-11T13:27:08.674Z,190.03
2018-11-11T13:29:38.371Z,158.77
2018-11-11T13:32:08.119Z,406.17
2018-11-11T13:34:37.704Z,383.03
2018-11-11T13:37:08.361Z,306.60
2018-11-11T13:39:38.037Z,137.00
2018-11-11T13:42:07.702Z,142.17
2018-11-11T13:44:37.370Z,144.27
2018-11-11T13:47:07.014Z,152.60
2018-11-11T13:49:36.623Z,176.03
2018-11-11T13:52:06.680Z,157.97
2018-11-11T13:54:36.292Z,140.83
2018-11-11T13:57:07.158Z,324.23
2018-11-11T13:59:36.827Z,145.57
2018-11-11T14:02:06.739Z,148.03
2018-11-11T14:04:36.580Z,143.90
2018-11-11T14:07:06.307Z,134.57
2018-11-11T14:09:35.942Z,140.50
2018-11-11T14:12:05.740Z,148.87
2018-11-11T14:14:35.343Z,142.33
2018-11-11T14:17:06.204Z,137.07
2018-11-11T14:19:35.916Z,139.00
2018-11-11T14:22:05.819Z,170.77
2018-11-11T14:24:35.493Z,158.03
2018-11-11T14:27:05.691Z,135.67
2018-11-11T14:29:35.447Z,143.37
2018-11-11T14:32:05.735Z,144.07
2018-11-11T14:34:35.437Z,147.07
2018-11-11T14:37:05.495Z,146.97
2018-11-11T14:39:35.114Z,125.70
2018-11-11T14:42:06.473Z,139.27
2018-11-11T14:44:36.114Z,164.70
2018-11-11T14:47:05.974Z,178.50
2018-11-11T14:49:35.592Z,166.00
2018-11-11T14:52:05.772Z,140.60
2018-11-11T14:54:35.384Z,135.23
2018-11-11T14:57:05.225Z,137.00
2018-11-11T14:59:35.879Z,137.47
2018-11-11T15:02:06.133Z,132.53
2018-11-11T15:04:35.787Z,135.67
2018-11-11T15:07:05.509Z,131.60
2018-11-11T15:09:35.147Z,139.53
2018-11-11T15:12:05.869Z,145.50
2018-11-11T15:14:35.525Z,163.83
2018-11-11T15:17:05.436Z,309.00
2018-11-11T15:19:35.242Z,219.50
2018-11-11T15:22:05.688Z,172.40
2018-11-11T15:24:35.316Z,171.07
2018-11-11T15:27:07.867Z,151.00
2018-11-11T15:29:37.543Z,170.03
2018-11-11T15:32:07.172Z,169.50
2018-11-11T15:34:36.828Z,132.50
2018-11-11T15:37:08.532Z,151.53
2018-11-11T15:39:38.178Z,139.27
2018-11-11T15:42:07.807Z,143.93
2018-11-11T15:44:37.445Z,126.53
2018-11-11T15:47:07.119Z,138.77
2018-11-11T15:49:36.715Z,146.60
2018-11-11T15:52:06.468Z,135.80
2018-11-11T15:54:37.395Z,143.50
2018-11-11T15:57:08.080Z,142.57
2018-11-11T15:59:38.683Z,150.73
2018-11-11T16:02:08.322Z,140.93
2018-11-11T16:04:37.943Z,137.73
2018-11-11T16:07:07.851Z,157.47
2018-11-11T16:09:37.450Z,148.33
2018-11-11T16:12:07.119Z,143.57
2018-11-11T16:14:37.712Z,144.57
2018-11-11T16:17:07.349Z,150.97
2018-11-11T16:19:37.006Z,152.33
2018-11-11T16:22:07.748Z,135.70
2018-11-11T16:24:38.389Z,154.73
2018-11-11T16:27:08.086Z,140.97
2018-11-11T16:29:37.708Z,143.57
2018-11-11T16:32:07.523Z,149.50
2018-11-11T16:34:38.147Z,144.23
2018-11-11T16:37:07.843Z,146.60
2018-11-11T16:39:37.594Z,139.73
2018-11-11T16:42:07.275Z,155.63
2018-11-11T16:44:36.929Z,141.90
2018-11-11T16:47:07.659Z,148.53
2018-11-11T16:49:38.306Z,155.23
2018-11-11T16:52:07.632Z,130.87
2018-11-11T16:54:38.262Z,139.47
2018-11-11T16:57:07.886Z,136.43
2018-11-11T16:59:37.479Z,132.73
2018-11-11T17:02:07.411Z,135.53
2018-11-11T17:04:37.116Z,130.33
2018-11-11T17:07:06.832Z,131.57
2018-11-11T17:09:36.469Z,145.43
2018-11-11T17:12:06.679Z,137.67
2018-11-11T17:14:36.594Z,138.73
2018-11-11T17:17:06.685Z,151.23
2018-11-11T17:19:36.291Z,141.43
2018-11-11T17:22:06.392Z,150.23
2018-11-11T17:24:35.892Z,154.77
2018-11-11T17:27:05.718Z,150.93
2018-11-11T17:29:35.395Z,129.53
2018-11-11T17:32:05.800Z,142.00
2018-11-11T17:34:36.440Z,146.87
2018-11-11T17:37:06.496Z,138.93
2018-11-11T17:39:36.111Z,149.33
2018-11-11T17:42:06.884Z,148.23
2018-11-11T17:44:36.496Z,130.07
2018-11-11T17:47:06.388Z,145.33
2018-11-11T17:49:36.043Z,142.50
2018-11-11T17:52:06.339Z,147.17
2018-11-11T17:54:35.969Z,139.17
2018-11-11T17:57:05.735Z,156.90
2018-11-11T17:59:35.343Z,145.40
2018-11-11T18:02:06.539Z,145.23
2018-11-11T18:04:36.132Z,150.23
2018-11-11T18:07:05.830Z,153.73
2018-11-11T18:09:35.440Z,145.17
2018-11-11T18:12:05.595Z,149.37
2018-11-11T18:14:36.228Z,148.23
2018-11-11T18:17:06.575Z,136.13
2018-11-11T18:19:36.144Z,152.43
2018-11-11T18:22:05.826Z,149.30
2018-11-11T18:24:35.478Z,151.07
2018-11-11T18:27:06.266Z,153.77
2018-11-11T18:29:35.866Z,159.17
2018-11-11T18:32:08.473Z,156.80
2018-11-11T18:34:38.299Z,150.70
2018-11-11T18:37:09.461Z,158.23
2018-11-11T18:39:39.106Z,160.67
2018-11-11T18:42:08.764Z,179.10
2018-11-11T18:44:39.386Z,157.07
2018-11-11T18:47:09.765Z,155.47
2018-11-11T18:49:39.383Z,192.37
2018-11-11T18:52:09.036Z,165.00
2018-11-11T18:54:38.670Z,186.00
2018-11-11T18:57:08.385Z,149.17
2018-11-11T18:59:39.006Z,155.63
2018-11-11T19:02:08.688Z,164.27
2018-11-11T19:04:38.320Z,160.87
2018-11-11T19:07:09.024Z,161.40
2018-11-11T19:09:40.382Z,161.63
2018-11-11T19:12:10.103Z,153.63
2018-11-11T19:14:41.235Z,152.27
2018-11-11T19:17:10.952Z,168.53
2018-11-11T19:19:40.559Z,209.80
2018-11-11T19:22:10.183Z,173.70
2018-11-11T19:24:39.944Z,156.77
2018-11-11T19:27:09.481Z,152.67
2018-11-11T19:29:40.114Z,152.47
2018-11-11T19:32:10.861Z,156.53
2018-11-11T19:34:40.503Z,145.47
2018-11-11T19:37:10.191Z,167.50
2018-11-11T19:39:39.816Z,156.37
2018-11-11T19:42:09.521Z,160.07
2018-11-11T19:44:39.131Z,160.37
2018-11-11T19:47:08.812Z,159.33
2018-11-11T19:49:38.464Z,167.70
2018-11-11T19:52:08.428Z,166.90
2018-11-11T19:54:38.088Z,163.37
2018-11-11T19:57:07.750Z,164.87
2018-11-11T19:59:37.352Z,172.50
2018-11-11T20:02:07.688Z,165.07
2018-11-11T20:04:37.332Z,172.87
2018-11-11T20:07:07.316Z,199.40
2018-11-11T20:09:36.960Z,165.80
2018-11-11T20:12:07.585Z,169.07
2018-11-11T20:14:37.206Z,164.03
2018-11-11T20:17:06.910Z,156.77
2018-11-11T20:19:36.570Z,166.30
2018-11-11T20:22:07.284Z,169.20
2018-11-11T20:24:36.954Z,170.40
2018-11-11T20:27:06.618Z,148.03
2018-11-11T20:29:37.260Z,165.40
2018-11-11T20:32:07.931Z,151.57
2018-11-11T20:34:38.555Z,186.20
2018-11-11T20:37:08.189Z,192.83
2018-11-11T20:39:37.805Z,176.40
2018-11-11T20:42:07.436Z,162.63
2018-11-11T20:44:37.064Z,236.13
2018-11-11T20:47:06.758Z,177.67
2018-11-11T20:49:36.389Z,212.20
2018-11-11T20:52:06.400Z,192.77
2018-11-11T20:54:36.045Z,210.17
2018-11-11T20:57:05.791Z,326.43
2018-11-11T20:59:35.428Z,197.13
2018-11-11T21:02:05.836Z,185.85
2018-11-11T21:04:35.845Z,395.07
2018-11-11T21:07:06.253Z,401.33
2018-11-11T21:09:36.072Z,323.40
2018-11-11T21:12:07.439Z,210.23
2018-11-11T21:14:39.225Z,194.57
2018-11-11T21:17:08.934Z,464.47
2018-11-11T21:19:38.611Z,291.90
2018-11-11T21:22:15.008Z,279.50
2018-11-11T21:24:45.082Z,244.90
2018-11-11T21:27:14.917Z,222.17
2018-11-11T21:29:46.423Z,289.07
2018-11-11T21:32:16.111Z,199.53
2018-11-11T21:34:46.276Z,223.03
2018-11-11T21:37:16.913Z,266.30
2018-11-11T21:39:46.559Z,190.63
2018-11-11T21:42:16.648Z,227.32
2018-11-11T21:44:47.668Z,191.23
2018-11-11T21:47:17.652Z,166.88
2018-11-11T21:49:48.704Z,291.20
2018-11-11T21:52:18.370Z,280.43
2018-11-11T21:54:48.048Z,186.27
2018-11-11T21:57:17.744Z,263.37
2018-11-11T21:59:47.412Z,323.83
2018-11-11T22:02:18.064Z,301.73
2018-11-11T22:04:48.687Z,255.43
2018-11-11T22:07:18.332Z,236.07
2018-11-11T22:09:48.023Z,171.13
2018-11-11T22:12:17.703Z,177.20
2018-11-11T22:14:47.318Z,188.47
2018-11-11T22:17:16.923Z,244.97
2018-11-11T22:19:46.599Z,207.10
2018-11-11T22:22:16.319Z,166.47
2018-11-11T22:24:45.942Z,209.13
2018-11-11T22:27:15.535Z,209.20
2018-11-11T22:29:45.144Z,210.70
2018-11-11T22:32:14.813Z,220.30
2018-11-11T22:34:44.444Z,163.77
2018-11-11T22:37:14.112Z,262.13
2018-11-11T22:39:43.735Z,177.93
2018-11-11T22:42:14.367Z,167.30
2018-11-11T22:44:43.988Z,176.40
2018-11-11T22:47:13.728Z,160.50
2018-11-11T22:49:43.435Z,212.93
2018-11-11T22:52:14.086Z,166.80
2018-11-11T22:54:43.764Z,169.77
2018-11-11T22:57:13.407Z,165.20
2018-11-11T22:59:43.004Z,167.63
2018-11-11T23:02:12.615Z,169.80
2018-11-11T23:04:42.265Z,175.87
2018-11-11T23:07:11.935Z,171.17
2018-11-11T23:09:41.536Z,174.80
2018-11-11T23:12:11.141Z,171.23
2018-11-11T23:14:40.772Z,183.50
2018-11-11T23:17:10.431Z,179.87
2018-11-11T23:19:41.024Z,168.17
2018-11-11T23:22:10.666Z,174.53
2018-11-11T23:24:40.315Z,170.57
2018-11-11T23:27:09.919Z,154.63
2018-11-11T23:29:39.580Z,181.47
2018-11-11T23:32:09.344Z,173.77
2018-11-11T23:34:38.941Z,161.67
2018-11-11T23:37:08.683Z,156.93
2018-11-11T23:39:39.282Z,171.47
2018-11-11T23:42:08.915Z,164.93
2018-11-11T23:44:39.520Z,153.20
2018-11-11T23:47:09.153Z,149.60
2018-11-11T23:49:38.768Z,152.93
2018-11-11T23:52:08.500Z,158.30
2018-11-11T23:54:38.103Z,168.37
2018-11-11T23:57:07.704Z,152.10
2018-11-11T23:59:37.309Z,164.10
